Time;durP1;ratioP1;P1;durP2;ratioP2;P2;SDS_P1;SDS_P2;PMS_P1;PMS_P2;Temp;Humidity;BMP_temperature;BMP_pressure;BME280_temperature;BME280_humidity;BME280_pressure;Samples;Min_cycle;Max_cycle;Signal;HPM_P1;HPM_P2
2022/06/06 00:00:25;;;;;;;4.57;1.40;;;;;;;;;;5026413;28;20493;-74
2022/06/06 00:02:51;;;;;;;6.50;2.00;;;;;;;;;;5019094;28;20071;-74
2022/06/06 00:05:17;;;;;;;4.60;1.75;;;;;;;;;;5016749;28;20084;-74
2022/06/06 00:07:44;;;;;;;6.30;1.60;;;;;;;;;;5021603;28;20061;-74
2022/06/06 00:10:11;;;;;;;4.75;0.90;;;;;;;;;;5024516;28;20041;-74
2022/06/06 00:12:37;;;;;;;4.82;0.90;;;;;;;;;;5024573;28;20037;-74
2022/06/06 00:15:04;;;;;;;4.88;1.20;;;;;;;;;;5020380;28;20435;-74
2022/06/06 00:17:30;;;;;;;6.10;1.40;;;;;;;;;;5012369;28;20083;-74
2022/06/06 00:19:56;;;;;;;5.43;1.48;;;;;;;;;;5030030;28;20124;-74
2022/06/06 00:22:22;;;;;;;6.57;1.60;;;;;;;;;;5025257;28;20030;-74
2022/06/06 00:24:48;;;;;;;3.38;1.00;;;;;;;;;;5026340;28;20045;-74
2022/06/06 00:27:14;;;;;;;5.25;1.40;;;;;;;;;;5012673;28;20057;-74
2022/06/06 00:29:41;;;;;;;4.68;1.10;;;;;;;;;;5030144;28;20068;-74
2022/06/06 00:34:52;;;;;;;2.55;1.33;;;;;;;;;;5017376;28;20100;-74
2022/06/06 00:37:23;;;;;;;5.65;1.23;;;;;;;;;;5030386;28;20091;-74
2022/06/06 00:39:49;;;;;;;7.10;1.20;;;;;;;;;;5027019;28;20025;-74
2022/06/06 00:42:21;;;;;;;5.97;1.15;;;;;;;;;;5028091;28;20025;-74
2022/06/06 00:44:47;;;;;;;5.18;1.48;;;;;;;;;;5026506;28;20464;-74
2022/06/06 00:47:27;;;;;;;3.95;1.50;;;;;;;;;;5027650;28;20471;-74
2022/06/06 00:50:01;;;;;;;8.02;1.70;;;;;;;;;;5020765;28;20049;-74
2022/06/06 00:52:30;;;;;;;3.50;1.65;;;;;;;;;;5015130;28;20108;-74
2022/06/06 00:54:59;;;;;;;5.47;1.40;;;;;;;;;;5028040;28;20128;-74
2022/06/06 00:57:28;;;;;;;6.30;1.20;;;;;;;;;;5025160;28;20108;-74
2022/06/06 00:59:54;;;;;;;8.10;1.90;;;;;;;;;;5023940;28;20076;-74
2022/06/06 01:02:21;;;;;;;7.75;1.45;;;;;;;;;;5014191;28;20030;-74
2022/06/06 01:04:47;;;;;;;16.02;1.52;;;;;;;;;;5027478;28;20041;-74
2022/06/06 01:07:14;;;;;;;6.63;1.65;;;;;;;;;;5031417;28;20109;-74
2022/06/06 01:09:40;;;;;;;6.65;1.40;;;;;;;;;;5030506;28;20696;-74
2022/06/06 01:12:12;;;;;;;6.22;1.38;;;;;;;;;;5022827;28;20037;-74
2022/06/06 01:14:40;;;;;;;7.22;1.70;;;;;;;;;;5034733;28;20124;-75
2022/06/06 01:17:12;;;;;;;8.02;1.45;;;;;;;;;;5033358;28;20057;-75
2022/06/06 01:19:41;;;;;;;6.95;1.77;;;;;;;;;;5034085;28;20029;-75
2022/06/06 01:22:07;;;;;;;9.25;2.25;;;;;;;;;;5032736;28;20068;-74
2022/06/06 01:24:49;;;;;;;6.18;1.40;;;;;;;;;;5026587;28;20061;-74
2022/06/06 01:27:24;;;;;;;3.95;1.02;;;;;;;;;;5026587;28;20064;-74
2022/06/06 01:29:54;;;;;;;6.30;1.20;;;;;;;;;;5029853;28;20073;-74
2022/06/06 01:32:21;;;;;;;6.28;1.15;;;;;;;;;;5020889;28;20029;-75
2022/06/06 01:34:51;;;;;;;5.15;1.80;;;;;;;;;;5020736;28;20040;-74
2022/06/06 01:37:32;;;;;;;4.03;1.10;;;;;;;;;;5029499;28;20141;-74
2022/06/06 01:39:59;;;;;;;4.23;1.07;;;;;;;;;;5024692;28;20033;-75
2022/06/06 01:42:26;;;;;;;4.25;1.30;;;;;;;;;;5024793;28;20026;-74
2022/06/06 01:44:54;;;;;;;4.43;1.33;;;;;;;;;;5032024;28;20037;-74
2022/06/06 01:47:29;;;;;;;4.47;1.40;;;;;;;;;;5014727;28;20068;-74
2022/06/06 01:49:56;;;;;;;9.55;1.52;;;;;;;;;;5031636;28;20049;-74
2022/06/06 01:52:22;;;;;;;5.40;1.70;;;;;;;;;;5014064;28;20089;-74
2022/06/06 01:54:52;;;;;;;15.80;1.88;;;;;;;;;;5031029;28;20055;-74
2022/06/06 01:57:18;;;;;;;6.25;1.50;;;;;;;;;;5028939;28;20433;-74
2022/06/06 01:59:44;;;;;;;5.35;2.00;;;;;;;;;;5027490;28;20060;-74
2022/06/06 02:02:11;;;;;;;7.97;1.45;;;;;;;;;;5019071;28;20061;-74
2022/06/06 02:04:37;;;;;;;5.95;1.83;;;;;;;;;;5032606;28;20057;-74
2022/06/06 02:07:03;;;;;;;4.78;1.45;;;;;;;;;;5029647;28;20048;-74
2022/06/06 02:09:31;;;;;;;6.95;1.55;;;;;;;;;;5020427;28;20134;-75
2022/06/06 02:11:58;;;;;;;5.10;2.15;;;;;;;;;;5033018;28;20099;-74
2022/06/06 02:14:24;;;;;;;4.15;1.92;;;;;;;;;;5032406;28;20040;-74
2022/06/06 02:16:50;;;;;;;5.05;1.63;;;;;;;;;;5022118;28;20041;-74
2022/06/06 02:19:16;;;;;;;7.32;1.83;;;;;;;;;;5026435;28;20030;-75
2022/06/06 02:21:43;;;;;;;6.60;1.95;;;;;;;;;;5031311;28;20478;-74
2022/06/06 02:24:09;;;;;;;8.38;2.45;;;;;;;;;;5022790;28;20112;-74
2022/06/06 02:26:35;;;;;;;4.38;1.52;;;;;;;;;;5026603;28;20136;-75
2022/06/06 02:29:01;;;;;;;4.32;1.85;;;;;;;;;;5021333;28;20105;-75
2022/06/06 02:31:28;;;;;;;6.75;1.90;;;;;;;;;;5030155;28;20042;-77
2022/06/06 02:33:54;;;;;;;6.82;1.50;;;;;;;;;;5015572;28;20467;-74
2022/06/06 02:36:20;;;;;;;4.50;1.50;;;;;;;;;;5026659;28;20042;-74
2022/06/06 02:38:46;;;;;;;7.78;2.03;;;;;;;;;;5016985;28;20068;-74
2022/06/06 02:41:12;;;;;;;8.15;2.33;;;;;;;;;;5025121;28;20383;-74
2022/06/06 02:43:39;;;;;;;4.68;1.90;;;;;;;;;;5032209;28;20029;-74
2022/06/06 02:46:09;;;;;;;5.15;1.70;;;;;;;;;;5017639;28;20038;-74
2022/06/06 02:48:35;;;;;;;7.95;1.83;;;;;;;;;;5031579;28;20046;-74
2022/06/06 02:51:02;;;;;;;8.32;2.47;;;;;;;;;;5032225;28;20037;-74
2022/06/06 02:53:28;;;;;;;6.35;1.75;;;;;;;;;;5023024;28;20061;-74
2022/06/06 02:55:55;;;;;;;3.05;1.52;;;;;;;;;;5018607;28;20125;-74
2022/06/06 02:58:21;;;;;;;5.05;1.95;;;;;;;;;;5023062;28;20509;-74
2022/06/06 03:00:48;;;;;;;2.97;1.60;;;;;;;;;;5011920;28;20045;-74
2022/06/06 03:03:14;;;;;;;6.38;1.60;;;;;;;;;;5022339;28;20026;-74
2022/06/06 03:05:53;;;;;;;8.07;1.58;;;;;;;;;;5031907;28;20034;-74
2022/06/06 03:08:28;;;;;;;7.28;1.50;;;;;;;;;;5023786;28;20654;-74
2022/06/06 03:10:53;;;;;;;7.53;1.67;;;;;;;;;;5023505;28;20037;-74
2022/06/06 03:13:22;;;;;;;6.15;1.80;;;;;;;;;;5025263;28;20026;-74
2022/06/06 03:21:59;;;;;;;12.02;2.20;;;;;;;;;;5020028;28;20053;-74
2022/06/06 03:24:31;;;;;;;6.80;1.80;;;;;;;;;;5022472;28;20045;-75
2022/06/06 03:27:11;;;;;;;3.83;1.45;;;;;;;;;;5023493;28;20080;-74
2022/06/06 03:29:39;;;;;;;6.80;1.58;;;;;;;;;;5029752;28;20025;-74
2022/06/06 03:32:21;;;;;;;3.63;1.35;;;;;;;;;;5030988;28;20487;-74
2022/06/06 03:34:52;;;;;;;4.57;1.70;;;;;;;;;;5017213;28;20037;-74
2022/06/06 03:37:21;;;;;;;5.03;2.03;;;;;;;;;;5028358;28;20033;-75
2022/06/06 03:40:03;;;;;;;4.70;1.80;;;;;;;;;;5031802;28;20055;-75
2022/06/06 03:42:36;;;;;;;7.43;1.20;;;;;;;;;;5021460;28;20068;-75
2022/06/06 03:45:02;;;;;;;4.00;1.85;;;;;;;;;;5024780;28;20029;-75
2022/06/06 03:47:28;;;;;;;3.92;2.03;;;;;;;;;;5015257;28;20675;-74
2022/06/06 03:50:08;;;;;;;7.70;1.92;;;;;;;;;;5031061;28;20042;-74
2022/06/06 03:52:45;;;;;;;5.28;1.83;;;;;;;;;;5030693;28;20044;-75
2022/06/06 03:55:30;;;;;;;5.70;1.95;;;;;;;;;;5011516;28;20129;-75
2022/06/06 03:57:56;;;;;;;8.10;2.35;;;;;;;;;;5026076;28;20582;-74
2022/06/06 04:00:23;;;;;;;6.88;2.20;;;;;;;;;;5015903;28;20034;-74
2022/06/06 04:02:49;;;;;;;7.75;2.63;;;;;;;;;;5030564;28;20029;-74
2022/06/06 04:05:17;;;;;;;4.72;1.98;;;;;;;;;;5030225;28;20072;-74
2022/06/06 04:07:43;;;;;;;7.53;2.75;;;;;;;;;;5029586;28;20029;-75
2022/06/06 04:10:10;;;;;;;5.07;1.90;;;;;;;;;;5019564;28;20041;-75
2022/06/06 04:12:48;;;;;;;7.65;1.98;;;;;;;;;;5029661;28;20041;-75
2022/06/06 04:15:21;;;;;;;6.55;1.35;;;;;;;;;;5024210;28;20120;-75
2022/06/06 04:17:50;;;;;;;6.30;1.40;;;;;;;;;;5025182;28;20022;-75
2022/06/06 04:20:31;;;;;;;4.15;1.40;;;;;;;;;;5023988;28;20038;-75
2022/06/06 04:23:22;;;;;;;5.53;2.07;;;;;;;;;;5022843;28;20022;-75
2022/06/06 04:26:00;;;;;;;5.40;1.45;;;;;;;;;;5025195;28;20072;-75
2022/06/06 04:28:31;;;;;;;5.30;1.77;;;;;;;;;;5030423;28;20033;-75
2022/06/06 04:31:12;;;;;;;3.17;1.40;;;;;;;;;;5026557;28;20038;-74
2022/06/06 04:33:38;;;;;;;3.08;1.35;;;;;;;;;;5024173;28;20037;-75
2022/06/06 04:36:14;;;;;;;4.88;1.75;;;;;;;;;;5028604;28;20048;-74
2022/06/06 04:38:52;;;;;;;4.88;1.70;;;;;;;;;;5024810;28;20053;-75
2022/06/06 04:41:40;;;;;;;3.65;1.40;;;;;;;;;;5026802;28;20030;-75
2022/06/06 04:44:06;;;;;;;3.78;2.30;;;;;;;;;;5018680;28;20037;-75
2022/06/06 04:46:41;;;;;;;6.00;2.38;;;;;;;;;;5018499;28;20038;-74
2022/06/06 04:49:08;;;;;;;5.40;1.55;;;;;;;;;;5016384;28;20058;-76
2022/06/06 04:51:34;;;;;;;5.10;1.60;;;;;;;;;;5012107;28;20030;-75
2022/06/06 04:54:02;;;;;;;7.70;1.38;;;;;;;;;;5023199;28;20448;-75
2022/06/06 04:56:28;;;;;;;4.10;1.40;;;;;;;;;;5022336;28;20034;-75
2022/06/06 04:58:56;;;;;;;4.47;1.45;;;;;;;;;;5038292;28;20609;-75
2022/06/06 05:01:23;;;;;;;4.70;1.50;;;;;;;;;;5028738;28;20065;-75
2022/06/06 05:03:49;;;;;;;7.68;2.33;;;;;;;;;;5025972;28;20040;-75
2022/06/06 05:06:23;;;;;;;6.97;2.08;;;;;;;;;;5022876;28;20033;-75
2022/06/06 05:08:49;;;;;;;5.00;1.70;;;;;;;;;;5025603;28;20360;-75
2022/06/06 05:11:27;;;;;;;9.25;2.33;;;;;;;;;;5013673;28;20045;-75
2022/06/06 05:14:00;;;;;;;4.47;1.20;;;;;;;;;;5022123;28;20072;-75
2022/06/06 05:16:44;;;;;;;3.58;1.48;;;;;;;;;;5019585;28;20141;-75
2022/06/06 05:19:18;;;;;;;5.75;1.90;;;;;;;;;;5026983;28;20400;-75
2022/06/06 05:22:03;;;;;;;8.85;1.88;;;;;;;;;;5014903;28;20030;-75
2022/06/06 05:24:32;;;;;;;5.85;1.85;;;;;;;;;;5018335;28;20487;-75
2022/06/06 05:27:19;;;;;;;4.95;1.90;;;;;;;;;;5024447;28;20028;-75
2022/06/06 05:29:48;;;;;;;6.85;1.83;;;;;;;;;;5030156;28;20109;-74
2022/06/06 05:32:35;;;;;;;9.13;2.15;;;;;;;;;;5029232;28;20458;-75
2022/06/06 05:35:19;;;;;;;4.65;2.00;;;;;;;;;;5026872;28;20123;-75
2022/06/06 05:38:04;;;;;;;7.70;2.10;;;;;;;;;;5021959;28;20383;-75
2022/06/06 05:40:45;;;;;;;6.72;2.60;;;;;;;;;;5018906;28;20041;-75
2022/06/06 05:43:10;;;;;;;6.88;2.97;;;;;;;;;;5021388;28;20141;-75
2022/06/06 05:45:42;;;;;;;10.80;2.75;;;;;;;;;;5014054;28;20120;-75
2022/06/06 05:48:26;;;;;;;5.60;2.00;;;;;;;;;;5023440;28;20078;-75
2022/06/06 05:50:52;;;;;;;3.97;1.23;;;;;;;;;;5028924;28;20029;-75
2022/06/06 05:53:18;;;;;;;4.88;1.45;;;;;;;;;;5027089;28;20048;-75
2022/06/06 05:55:55;;;;;;;6.25;1.17;;;;;;;;;;5033466;28;20431;-75
2022/06/06 05:58:21;;;;;;;3.60;1.33;;;;;;;;;;5028315;28;21005;-75
2022/06/06 06:01:00;;;;;;;6.53;1.92;;;;;;;;;;5021578;28;20041;-75
2022/06/06 06:03:45;;;;;;;8.77;2.15;;;;;;;;;;5020579;28;20022;-75
2022/06/06 06:06:27;;;;;;;6.18;1.52;;;;;;;;;;5029039;28;20541;-75
2022/06/06 06:08:55;;;;;;;6.85;2.55;;;;;;;;;;5026623;28;20041;-75
2022/06/06 06:11:30;;;;;;;8.43;2.78;;;;;;;;;;5030172;28;20041;-76
2022/06/06 06:14:02;;;;;;;5.35;2.22;;;;;;;;;;5027145;28;20029;-75
2022/06/06 06:16:28;;;;;;;;;;;;;;;;;;5015035;28;20080;-75
2022/06/06 06:19:07;;;;;;;7.55;1.40;;;;;;;;;;5023098;28;19917;-75
2022/06/06 06:21:37;;;;;;;6.43;2.22;;;;;;;;;;5021586;28;20037;-75
2022/06/06 06:24:04;;;;;;;6.72;2.30;;;;;;;;;;5024862;28;20029;-75
2022/06/06 06:26:31;;;;;;;6.55;1.90;;;;;;;;;;5024912;28;20037;-75
2022/06/06 06:29:00;;;;;;;6.15;1.67;;;;;;;;;;5028176;28;20037;-75
2022/06/06 06:31:32;;;;;;;5.63;1.92;;;;;;;;;;5016048;28;20433;-75
2022/06/06 06:34:07;;;;;;;7.50;1.50;;;;;;;;;;5019274;28;20048;-75
2022/06/06 06:36:44;;;;;;;6.60;1.67;;;;;;;;;;5032312;28;20034;-75
2022/06/06 06:39:23;;;;;;;8.43;1.73;;;;;;;;;;5024687;28;20033;-75
2022/06/06 06:42:07;;;;;;;6.82;1.52;;;;;;;;;;5029289;28;20121;-75
2022/06/06 06:44:35;;;;;;;4.95;1.33;;;;;;;;;;5019325;28;20034;-75
2022/06/06 06:47:08;;;;;;;7.00;1.20;;;;;;;;;;5032021;28;20139;-75
2022/06/06 06:49:41;;;;;;;6.65;1.85;;;;;;;;;;5024730;28;20049;-75
2022/06/06 06:52:13;;;;;;;4.15;1.20;;;;;;;;;;5024530;28;20041;-75
2022/06/06 06:54:50;;;;;;;3.78;1.42;;;;;;;;;;5029520;28;20041;-75
2022/06/06 06:57:27;;;;;;;6.47;1.48;;;;;;;;;;5031542;28;20030;-75
2022/06/06 06:59:53;;;;;;;4.05;1.10;;;;;;;;;;5028261;28;20420;-75
2022/06/06 07:08:34;;;;;;;4.45;1.50;;;;;;;;;;5019006;28;20034;-75
2022/06/06 07:11:09;;;;;;;12.95;1.50;;;;;;;;;;5019076;28;20036;-75
2022/06/06 07:13:45;;;;;;;3.45;0.85;;;;;;;;;;5021109;28;20139;-75
2022/06/06 07:16:14;;;;;;;6.07;1.27;;;;;;;;;;5026469;28;20041;-75
2022/06/06 07:18:42;;;;;;;4.55;1.13;;;;;;;;;;5030113;28;20503;-75
2022/06/06 07:21:08;;;;;;;5.63;1.35;;;;;;;;;;5016068;28;20045;-75
2022/06/06 07:23:36;;;;;;;5.93;1.20;;;;;;;;;;5026568;28;20025;-75
2022/06/06 07:26:03;;;;;;;4.10;0.93;;;;;;;;;;5021980;28;20041;-75
2022/06/06 07:28:30;;;;;;;3.97;1.00;;;;;;;;;;5022692;28;20049;-75
2022/06/06 07:30:56;;;;;;;3.80;1.00;;;;;;;;;;5017855;28;20038;-76
2022/06/06 07:33:25;;;;;;;6.00;1.70;;;;;;;;;;5021771;28;20048;-75
2022/06/06 07:35:54;;;;;;;4.95;1.20;;;;;;;;;;5024524;28;20383;-75
2022/06/06 07:38:20;;;;;;;4.90;1.10;;;;;;;;;;5027949;28;20026;-75
2022/06/06 07:40:53;;;;;;;7.35;1.27;;;;;;;;;;5021126;28;20522;-75
2022/06/06 07:43:28;;;;;;;5.25;1.10;;;;;;;;;;5027199;28;20021;-75
2022/06/06 07:45:59;;;;;;;4.20;1.00;;;;;;;;;;5032047;28;20032;-75
2022/06/06 07:48:57;;;;;;;3.90;1.00;;;;;;;;;;5024927;28;20033;-75
2022/06/06 07:51:29;;;;;;;5.50;1.10;;;;;;;;;;5009207;28;20051;-76
2022/06/06 07:53:55;;;;;;;;;;;;;;;;;;5018969;28;20344;-75
2022/06/06 07:56:47;;;;;;;6.18;1.42;;;;;;;;;;5030833;28;20047;-75
2022/06/06 07:59:20;;;;;;;5.45;1.23;;;;;;;;;;5024019;28;20069;-76
2022/06/06 08:02:07;;;;;;;5.82;1.23;;;;;;;;;;5025605;28;20036;-75
2022/06/06 08:04:33;;;;;;;4.97;1.35;;;;;;;;;;5002385;28;20041;-76
2022/06/06 08:07:15;;;;;;;4.28;1.20;;;;;;;;;;5015617;28;20410;-75
2022/06/06 08:09:53;;;;;;;8.50;1.70;;;;;;;;;;5023266;28;20044;-75
2022/06/06 08:12:31;;;;;;;2.20;1.20;;;;;;;;;;5014275;28;20556;-76
2022/06/06 08:15:17;;;;;;;4.05;1.30;;;;;;;;;;5029465;28;20463;-76
2022/06/06 08:17:46;;;;;;;5.05;1.27;;;;;;;;;;5020890;28;20053;-76
2022/06/06 08:20:27;;;;;;;5.63;1.00;;;;;;;;;;5026271;28;20107;-76
2022/06/06 08:22:54;;;;;;;6.13;1.20;;;;;;;;;;5022668;28;20022;-75
2022/06/06 08:25:21;;;;;;;5.55;1.00;;;;;;;;;;5020923;28;20061;-75
2022/06/06 08:27:50;;;;;;;3.13;1.00;;;;;;;;;;5021694;28;20050;-75
2022/06/06 08:30:16;;;;;;;2.95;1.20;;;;;;;;;;5031856;28;20033;-76
2022/06/06 08:32:42;;;;;;;5.07;1.05;;;;;;;;;;5030092;28;20478;-76
2022/06/06 08:35:08;;;;;;;3.03;1.20;;;;;;;;;;5028517;28;20076;-76
2022/06/06 08:37:43;;;;;;;4.55;1.30;;;;;;;;;;5024111;28;20030;-76
2022/06/06 08:40:09;;;;;;;3.00;1.15;;;;;;;;;;5017277;28;20472;-76
2022/06/06 08:42:35;;;;;;;4.38;1.08;;;;;;;;;;5015278;28;20689;-76
2022/06/06 08:45:04;;;;;;;6.07;1.15;;;;;;;;;;5021261;28;20045;-75
2022/06/06 08:47:30;;;;;;;3.42;1.08;;;;;;;;;;5021847;28;20034;-76
2022/06/06 08:53:28;;;;;;;3.08;0.90;;;;;;;;;;5024823;28;21709;-75
2022/06/06 08:55:57;;;;;;;3.35;1.08;;;;;;;;;;5021760;28;20151;-75
2022/06/06 08:58:53;;;;;;;5.97;1.50;;;;;;;;;;5018392;28;20032;-75
2022/06/06 09:01:30;;;;;;;4.35;1.15;;;;;;;;;;5023518;28;20076;-76
2022/06/06 09:04:14;;;;;;;3.13;1.00;;;;;;;;;;5030437;28;20028;-76
2022/06/06 09:07:03;;;;;;;3.75;1.10;;;;;;;;;;5025236;28;20099;-76
2022/06/06 09:09:47;;;;;;;3.53;1.20;;;;;;;;;;5020447;28;20045;-76
2022/06/06 09:12:22;;;;;;;2.95;1.17;;;;;;;;;;5023799;28;20816;-76
2022/06/06 09:14:58;;;;;;;3.97;1.17;;;;;;;;;;5024721;28;20478;-75
2022/06/06 09:17:33;;;;;;;3.63;0.95;;;;;;;;;;5015401;28;20800;-76
2022/06/06 09:20:02;;;;;;;2.65;1.02;;;;;;;;;;5032119;28;20028;-76
2022/06/06 09:22:28;;;;;;;5.68;1.45;;;;;;;;;;5037861;28;20037;-76
2022/06/06 09:25:10;;;;;;;3.42;1.17;;;;;;;;;;5024861;28;20033;-76
2022/06/06 09:27:49;;;;;;;4.55;1.55;;;;;;;;;;5016883;28;20048;-76
2022/06/06 09:30:24;;;;;;;4.82;1.50;;;;;;;;;;5025883;28;20026;-75
2022/06/06 09:33:02;;;;;;;6.57;1.30;;;;;;;;;;5026241;28;20062;-76
2022/06/06 09:35:48;;;;;;;3.55;1.00;;;;;;;;;;5030086;28;20069;-76
2022/06/06 09:38:14;;;;;;;3.45;0.90;;;;;;;;;;5018385;28;20407;-76
2022/06/06 09:40:49;;;;;;;3.47;1.20;;;;;;;;;;5028902;28;20829;-76
2022/06/06 09:43:34;;;;;;;2.92;1.00;;;;;;;;;;5027569;28;20026;-76
2022/06/06 09:46:19;;;;;;;3.33;0.95;;;;;;;;;;5025624;28;20037;-76
2022/06/06 09:49:03;;;;;;;5.88;1.00;;;;;;;;;;5032609;28;20135;-76
2022/06/06 09:51:38;;;;;;;3.92;1.02;;;;;;;;;;5020262;28;20037;-75
2022/06/06 09:59:52;;;;;;;4.80;0.80;;;;;;;;;;5028754;28;20122;-76
2022/06/06 10:02:24;;;;;;;5.55;1.10;;;;;;;;;;5022712;28;20113;-76
2022/06/06 10:04:53;;;;;;;2.35;0.75;;;;;;;;;;5033607;28;20033;-76
2022/06/06 10:07:38;;;;;;;1.67;0.75;;;;;;;;;;5033013;28;20489;-76
2022/06/06 10:10:20;;;;;;;4.25;1.00;;;;;;;;;;5077467;23;20044;-76
2022/06/06 10:12:49;;;;;;;3.97;0.80;;;;;;;;;;5069471;28;20115;-76
2022/06/06 10:15:18;;;;;;;4.65;0.90;;;;;;;;;;5065747;28;20478;-76
2022/06/06 10:17:50;;;;;;;3.38;0.90;;;;;;;;;;5066989;28;20017;-76
2022/06/06 10:20:16;;;;;;;6.53;0.98;;;;;;;;;;5067297;28;20037;-76
2022/06/06 10:23:01;;;;;;;2.38;0.80;;;;;;;;;;5056900;28;20021;-76
2022/06/06 10:25:53;;;;;;;5.75;1.20;;;;;;;;;;5066283;28;20064;-76
2022/06/06 10:28:22;;;;;;;1.92;0.80;;;;;;;;;;5067423;28;20545;-76
2022/06/06 10:30:51;;;;;;;3.83;1.00;;;;;;;;;;5073159;28;20028;-76
2022/06/06 10:33:27;;;;;;;2.65;0.93;;;;;;;;;;5070188;28;20054;-76
2022/06/06 10:36:05;;;;;;;4.38;1.08;;;;;;;;;;5070440;28;20035;-76
2022/06/06 10:38:40;;;;;;;5.57;1.20;;;;;;;;;;5066807;28;20028;-76
2022/06/06 10:41:12;;;;;;;6.05;0.98;;;;;;;;;;5070032;28;20802;-76
2022/06/06 10:43:58;;;;;;;5.50;1.02;;;;;;;;;;5064082;28;20028;-76
2022/06/06 10:46:42;;;;;;;3.65;1.10;;;;;;;;;;5064025;28;20497;-76
2022/06/06 10:49:11;;;;;;;5.72;1.20;;;;;;;;;;5059337;28;20033;-76
2022/06/06 10:52:04;;;;;;;3.38;1.38;;;;;;;;;;5063943;28;20120;-76
2022/06/06 10:54:55;;;;;;;3.72;1.05;;;;;;;;;;5065160;28;20052;-76
2022/06/06 10:57:22;;;;;;;;;;;;;;;;;;5060939;28;20024;-76
2022/06/06 10:59:48;;;;;;;4.20;1.20;;;;;;;;;;5068988;28;20407;-76
2022/06/06 11:02:20;;;;;;;5.53;0.90;;;;;;;;;;5067837;28;20024;-76
2022/06/06 11:05:05;;;;;;;4.93;1.02;;;;;;;;;;5063086;28;20070;-76
2022/06/06 11:07:50;;;;;;;1.95;0.90;;;;;;;;;;5065908;28;20028;-76
2022/06/06 11:10:25;;;;;;;3.63;0.90;;;;;;;;;;5065452;28;20044;-76
2022/06/06 11:13:00;;;;;;;3.17;1.00;;;;;;;;;;5067910;28;20036;-76
2022/06/06 11:15:36;;;;;;;3.67;1.27;;;;;;;;;;5057981;28;20810;-76
2022/06/06 11:18:27;;;;;;;3.03;0.88;;;;;;;;;;5065605;28;20017;-76
2022/06/06 11:21:19;;;;;;;3.20;0.93;;;;;;;;;;5064902;28;20025;-76
2022/06/06 11:23:45;;;;;;;3.88;1.20;;;;;;;;;;5050415;28;20056;-76
2022/06/06 11:26:29;;;;;;;6.78;1.00;;;;;;;;;;5064475;28;20881;-76
2022/06/06 11:29:01;;;;;;;4.68;1.00;;;;;;;;;;5068534;28;20040;-76
2022/06/06 11:31:36;;;;;;;4.70;1.33;;;;;;;;;;5064086;28;20029;-76
2022/06/06 11:34:21;;;;;;;7.03;1.88;;;;;;;;;;5068004;28;20038;-76
2022/06/06 11:36:46;;;;;;;4.18;1.00;;;;;;;;;;5065751;28;20025;-76
2022/06/06 11:39:35;;;;;;;3.53;0.90;;;;;;;;;;5070940;28;20043;-76
2022/06/06 11:42:04;;;;;;;4.32;1.00;;;;;;;;;;5048785;28;20048;-76
2022/06/06 11:44:48;;;;;;;6.78;1.88;;;;;;;;;;5064290;28;20024;-76
2022/06/06 11:47:26;;;;;;;2.78;0.90;;;;;;;;;;5057044;28;20037;-76
2022/06/06 11:50:05;;;;;;;4.75;0.88;;;;;;;;;;5063589;28;20027;-76
2022/06/06 11:52:50;;;;;;;4.47;1.08;;;;;;;;;;5065410;28;20044;-76
2022/06/06 11:55:32;;;;;;;3.92;0.88;;;;;;;;;;5066914;28;20036;-76
2022/06/06 11:58:07;;;;;;;3.28;0.90;;;;;;;;;;5058524;28;20697;-75
2022/06/06 12:00:52;;;;;;;2.97;0.95;;;;;;;;;;5061009;28;20400;-76
2022/06/06 12:03:18;;;;;;;1.92;0.90;;;;;;;;;;5058011;28;20625;-77
2022/06/06 12:05:44;;;;;;;6.07;1.20;;;;;;;;;;5067636;28;20032;-76
2022/06/06 12:08:36;;;;;;;3.38;0.90;;;;;;;;;;5062880;28;20041;-77
2022/06/06 12:11:06;;;;;;;2.72;0.90;;;;;;;;;;5063105;28;20068;-76
2022/06/06 12:13:38;;;;;;;3.08;0.90;;;;;;;;;;5061766;28;20033;-76
2022/06/06 12:16:04;;;;;;;3.00;1.02;;;;;;;;;;5056919;28;20985;-76
2022/06/06 12:18:30;;;;;;;2.28;0.85;;;;;;;;;;5057302;28;20112;-76
2022/06/06 12:21:09;;;;;;;2.78;0.82;;;;;;;;;;5056160;28;20034;-75
2022/06/06 12:23:35;;;;;;;6.45;0.98;;;;;;;;;;5061767;28;20067;-75
2022/06/06 12:26:19;;;;;;;4.70;1.00;;;;;;;;;;5059657;28;20068;-75
2022/06/06 12:29:03;;;;;;;3.25;0.93;;;;;;;;;;5061083;28;20074;-75
2022/06/06 12:31:36;;;;;;;2.65;0.90;;;;;;;;;;5062443;28;20855;-76
2022/06/06 12:34:15;;;;;;;4.68;0.98;;;;;;;;;;5057786;28;20480;-75
2022/06/06 12:36:43;;;;;;;5.32;1.05;;;;;;;;;;5058099;28;20413;-76
2022/06/06 12:39:12;;;;;;;3.08;0.90;;;;;;;;;;5064184;28;20032;-76
2022/06/06 12:41:56;;;;;;;4.82;1.10;;;;;;;;;;5055185;28;20029;-76
2022/06/06 12:44:26;;;;;;;4.10;0.82;;;;;;;;;;5059943;28;20029;-76
2022/06/06 12:47:13;;;;;;;4.65;0.95;;;;;;;;;;5056039;28;20033;-76
2022/06/06 12:49:42;;;;;;;3.58;1.05;;;;;;;;;;5065755;28;20914;-76
2022/06/06 12:52:23;;;;;;;4.88;1.42;;;;;;;;;;5060878;28;20045;-77
2022/06/06 12:57:33;;;;;;;1.85;0.90;;;;;;;;;;5073360;28;20040;-76
2022/06/06 13:00:06;;;;;;;4.43;1.13;;;;;;;;;;5064206;28;20377;-76
2022/06/06 13:02:32;;;;;;;3.28;0.90;;;;;;;;;;5067385;28;20492;-76
2022/06/06 13:05:09;;;;;;;2.78;0.80;;;;;;;;;;5064602;28;20020;-77
2022/06/06 13:07:38;;;;;;;5.35;1.25;;;;;;;;;;5065145;28;20071;-76
2022/06/06 13:10:13;;;;;;;4.15;1.13;;;;;;;;;;5066318;28;20502;-76
2022/06/06 13:12:47;;;;;;;6.53;1.17;;;;;;;;;;5056532;28;20032;-76
2022/06/06 13:15:17;;;;;;;3.83;1.02;;;;;;;;;;5060807;28;20037;-76
2022/06/06 13:17:48;;;;;;;2.53;1.00;;;;;;;;;;5061251;28;20682;-76
2022/06/06 13:20:22;;;;;;;3.28;1.00;;;;;;;;;;5066905;28;20029;-76
2022/06/06 13:22:54;;;;;;;5.43;1.25;;;;;;;;;;5061724;28;20377;-76
2022/06/06 13:25:39;;;;;;;2.35;1.00;;;;;;;;;;5067486;28;20622;-76
2022/06/06 13:28:20;;;;;;;3.75;1.08;;;;;;;;;;5060395;28;20051;-76
2022/06/06 13:30:49;;;;;;;5.13;1.08;;;;;;;;;;5070540;28;20093;-76
2022/06/06 13:33:18;;;;;;;2.38;0.93;;;;;;;;;;5066457;28;20036;-76
2022/06/06 13:35:51;;;;;;;3.10;1.10;;;;;;;;;;5072659;28;20383;-76
2022/06/06 13:38:17;;;;;;;3.75;1.10;;;;;;;;;;5065466;28;20053;-76
2022/06/06 13:40:55;;;;;;;6.82;1.10;;;;;;;;;;5060888;28;20017;-76
2022/06/06 13:43:35;;;;;;;5.25;1.08;;;;;;;;;;5067586;28;20033;-76
2022/06/06 13:46:17;;;;;;;4.57;1.10;;;;;;;;;;5067041;28;20033;-76
2022/06/06 13:49:02;;;;;;;2.67;1.00;;;;;;;;;;5071286;28;20097;-76
2022/06/06 13:51:47;;;;;;;5.70;1.13;;;;;;;;;;5061503;28;20103;-77
2022/06/06 13:54:30;;;;;;;3.97;0.98;;;;;;;;;;5063762;28;20065;-76
2022/06/06 13:56:56;;;;;;;2.67;1.00;;;;;;;;;;5072949;28;20056;-76
2022/06/06 13:59:31;;;;;;;3.78;1.10;;;;;;;;;;5066895;28;20109;-76
2022/06/06 14:02:06;;;;;;;4.85;1.10;;;;;;;;;;5068900;28;20025;-76
2022/06/06 14:04:32;;;;;;;7.22;1.40;;;;;;;;;;5066961;28;20465;-76
2022/06/06 14:07:11;;;;;;;1.90;0.82;;;;;;;;;;5069304;28;20074;-76
2022/06/06 14:09:37;;;;;;;5.30;1.02;;;;;;;;;;5058834;28;20067;-76
2022/06/06 14:12:09;;;;;;;3.45;0.90;;;;;;;;;;5064654;28;20074;-76
2022/06/06 14:14:36;;;;;;;5.25;1.05;;;;;;;;;;5070066;28;20028;-76
2022/06/06 14:17:05;;;;;;;4.53;1.00;;;;;;;;;;5069904;28;20634;-76
2022/06/06 14:19:36;;;;;;;2.85;1.00;;;;;;;;;;5067692;28;20529;-76
2022/06/06 14:22:04;;;;;;;8.10;0.80;;;;;;;;;;5062406;28;20060;-76
2022/06/06 14:24:32;;;;;;;4.47;0.95;;;;;;;;;;5066042;28;20108;-76
2022/06/06 14:27:01;;;;;;;3.75;0.80;;;;;;;;;;5061795;28;20074;-74
2022/06/06 14:29:27;;;;;;;3.65;0.75;;;;;;;;;;5066056;28;20825;-75
2022/06/06 14:31:55;;;;;;;1.88;0.70;;;;;;;;;;5061650;28;20504;-75
2022/06/06 14:34:27;;;;;;;3.15;1.08;;;;;;;;;;5066272;28;20059;-75
2022/06/06 14:37:12;;;;;;;3.50;0.60;;;;;;;;;;5066868;28;20119;-75
2022/06/06 14:39:38;;;;;;;5.20;1.08;;;;;;;;;;5060533;28;20039;-75
2022/06/06 14:42:06;;;;;;;3.30;0.90;;;;;;;;;;5063977;28;20111;-75
2022/06/06 14:44:35;;;;;;;5.25;0.80;;;;;;;;;;5061007;28;20033;-75
2022/06/06 14:47:25;;;;;;;4.28;0.90;;;;;;;;;;5070543;28;20060;-75
2022/06/06 14:52:52;;;;;;;4.95;0.70;;;;;;;;;;5060758;28;21043;-75
2022/06/06 14:55:19;;;;;;;6.03;0.80;;;;;;;;;;5063991;28;20046;-75
2022/06/06 14:57:45;;;;;;;5.05;0.90;;;;;;;;;;5060002;28;20062;-75
2022/06/06 15:00:15;;;;;;;3.65;0.75;;;;;;;;;;5055146;28;20065;-75
2022/06/06 15:02:41;;;;;;;6.93;0.73;;;;;;;;;;5058454;28;20478;-75
2022/06/06 15:05:16;;;;;;;2.35;0.80;;;;;;;;;;5062656;28;20043;-74
2022/06/06 15:07:49;;;;;;;4.35;0.80;;;;;;;;;;5066967;28;20029;-75
2022/06/06 15:10:31;;;;;;;4.18;0.70;;;;;;;;;;5060620;28;20049;-75
2022/06/06 15:12:57;;;;;;;3.20;0.70;;;;;;;;;;5064950;28;20028;-75
2022/06/06 15:15:26;;;;;;;2.05;0.55;;;;;;;;;;5058929;28;20036;-75
2022/06/06 15:17:52;;;;;;;1.75;0.82;;;;;;;;;;5059274;28;20941;-75
2022/06/06 15:20:23;;;;;;;1.50;0.60;;;;;;;;;;5065155;28;20040;-75
2022/06/06 15:22:50;;;;;;;2.40;0.63;;;;;;;;;;5064693;28;20025;-76
2022/06/06 15:25:30;;;;;;;1.42;0.60;;;;;;;;;;5065225;28;20413;-75
2022/06/06 15:28:13;;;;;;;2.72;0.80;;;;;;;;;;5068439;28;20087;-75
2022/06/06 15:30:42;;;;;;;4.97;0.70;;;;;;;;;;5063524;28;20115;-75
2022/06/06 15:33:11;;;;;;;3.50;0.80;;;;;;;;;;5060602;28;20036;-75
2022/06/06 15:35:50;;;;;;;1.73;0.60;;;;;;;;;;5056763;28;20037;-75
2022/06/06 15:38:25;;;;;;;2.65;0.73;;;;;;;;;;5059579;28;20040;-75
2022/06/06 15:40:54;;;;;;;2.95;0.68;;;;;;;;;;5059066;28;20037;-75
2022/06/06 15:43:29;;;;;;;2.90;0.82;;;;;;;;;;5062525;28;20081;-75
2022/06/06 15:45:55;;;;;;;3.88;0.85;;;;;;;;;;5061220;28;20471;-75